sensor_id;sensor_type;location;lat;lon;timestamp;temperature;humidity
67161;DHT22;54088;52.238;21.104;2022-09-13T00:00:58;11.20;91.00
67161;DHT22;54088;52.238;21.104;2022-09-13T00:03:24;11.10;91.00
67161;DHT22;54088;52.238;21.104;2022-09-13T00:05:50;11.10;91.00
67161;DHT22;54088;52.238;21.104;2022-09-13T00:08:16;11.10;91.00
67161;DHT22;54088;52.238;21.104;2022-09-13T00:10:43;11.00;90.90
67161;DHT22;54088;52.238;21.104;2022-09-13T00:13:10;11.00;90.90
67161;DHT22;54088;52.238;21.104;2022-09-13T00:15:44;10.90;90.90
67161;DHT22;54088;52.238;21.104;2022-09-13T00:18:11;10.90;90.90
67161;DHT22;54088;52.238;21.104;2022-09-13T00:20:37;10.90;90.90
67161;DHT22;54088;52.238;21.104;2022-09-13T00:23:03;10.90;90.90
67161;DHT22;54088;52.238;21.104;2022-09-13T00:25:28;10.90;91.00
67161;DHT22;54088;52.238;21.104;2022-09-13T00:27:54;10.80;91.00
67161;DHT22;54088;52.238;21.104;2022-09-13T00:30:20;10.80;91.10
67161;DHT22;54088;52.238;21.104;2022-09-13T00:32:45;10.70;91.10
67161;DHT22;54088;52.238;21.104;2022-09-13T00:35:11;10.70;91.10
67161;DHT22;54088;52.238;21.104;2022-09-13T00:37:37;10.70;91.20
67161;DHT22;54088;52.238;21.104;2022-09-13T00:40:04;10.70;91.20
67161;DHT22;54088;52.238;21.104;2022-09-13T00:42:31;10.60;91.20
67161;DHT22;54088;52.238;21.104;2022-09-13T00:45:07;10.60;91.20
67161;DHT22;54088;52.238;21.104;2022-09-13T00:50:36;10.50;91.20
67161;DHT22;54088;52.238;21.104;2022-09-13T00:53:17;10.50;91.20
67161;DHT22;54088;52.238;21.104;2022-09-13T00:56:10;10.50;91.20
67161;DHT22;54088;52.238;21.104;2022-09-13T00:58:45;10.50;91.20
67161;DHT22;54088;52.238;21.104;2022-09-13T01:01:15;10.40;91.20
67161;DHT22;54088;52.238;21.104;2022-09-13T01:03:42;10.40;91.10
67161;DHT22;54088;52.238;21.104;2022-09-13T01:06:12;10.40;91.20
67161;DHT22;54088;52.238;21.104;2022-09-13T01:08:40;10.30;91.10
67161;DHT22;54088;52.238;21.104;2022-09-13T01:11:12;10.30;91.10
67161;DHT22;54088;52.238;21.104;2022-09-13T01:13:40;10.30;91.10
67161;DHT22;54088;52.238;21.104;2022-09-13T01:16:06;10.20;91.10
67161;DHT22;54088;52.238;21.104;2022-09-13T01:18:32;10.20;91.10
67161;DHT22;54088;52.238;21.104;2022-09-13T01:32:32;10.00;91.30
67161;DHT22;54088;52.238;21.104;2022-09-13T01:43:51;9.90;91.30
67161;DHT22;54088;52.238;21.104;2022-09-13T01:51:30;9.80;91.30
67161;DHT22;54088;52.238;21.104;2022-09-13T01:56:37;9.80;91.30
67161;DHT22;54088;52.238;21.104;2022-09-13T01:59:16;9.70;91.40
67161;DHT22;54088;52.238;21.104;2022-09-13T02:02:48;9.70;91.50
67161;DHT22;54088;52.238;21.104;2022-09-13T02:05:01;9.70;91.40
67161;DHT22;54088;52.238;21.104;2022-09-13T02:07:36;9.60;91.40
67161;DHT22;54088;52.238;21.104;2022-09-13T02:10:13;9.60;91.50
67161;DHT22;54088;52.238;21.104;2022-09-13T02:12:42;9.60;91.30
67161;DHT22;54088;52.238;21.104;2022-09-13T02:15:26;9.50;91.30
67161;DHT22;54088;52.238;21.104;2022-09-13T02:18:09;9.50;91.20
67161;DHT22;54088;52.238;21.104;2022-09-13T02:20:41;9.50;91.20
67161;DHT22;54088;52.238;21.104;2022-09-13T02:23:24;9.40;91.20
67161;DHT22;54088;52.238;21.104;2022-09-13T02:25:53;9.40;91.30
67161;DHT22;54088;52.238;21.104;2022-09-13T02:28:30;9.40;91.20
67161;DHT22;54088;52.238;21.104;2022-09-13T02:30:58;9.40;91.20
67161;DHT22;54088;52.238;21.104;2022-09-13T02:33:50;9.30;91.10
67161;DHT22;54088;52.238;21.104;2022-09-13T02:36:23;9.30;91.20
67161;DHT22;54088;52.238;21.104;2022-09-13T02:39:01;9.20;91.10
67161;DHT22;54088;52.238;21.104;2022-09-13T02:49:57;9.10;91.20
67161;DHT22;54088;52.238;21.104;2022-09-13T02:55:19;9.20;91.20
67161;DHT22;54088;52.238;21.104;2022-09-13T02:57:51;9.10;91.20
67161;DHT22;54088;52.238;21.104;2022-09-13T03:00:18;9.10;91.10
67161;DHT22;54088;52.238;21.104;2022-09-13T03:02:44;9.10;91.20
67161;DHT22;54088;52.238;21.104;2022-09-13T03:05:11;9.10;91.40
67161;DHT22;54088;52.238;21.104;2022-09-13T03:07:37;9.00;91.20
67161;DHT22;54088;52.238;21.104;2022-09-13T03:10:06;9.00;91.20
67161;DHT22;54088;52.238;21.104;2022-09-13T03:20:31;8.80;91.20
67161;DHT22;54088;52.238;21.104;2022-09-13T03:23:27;8.90;91.20
67161;DHT22;54088;52.238;21.104;2022-09-13T03:29:01;8.90;91.10
67161;DHT22;54088;52.238;21.104;2022-09-13T03:31:31;8.90;91.10
67161;DHT22;54088;52.238;21.104;2022-09-13T03:36:53;8.80;91.10
67161;DHT22;54088;52.238;21.104;2022-09-13T03:39:33;8.90;91.10
67161;DHT22;54088;52.238;21.104;2022-09-13T03:42:03;8.80;91.10
67161;DHT22;54088;52.238;21.104;2022-09-13T03:44:33;8.80;91.10
67161;DHT22;54088;52.238;21.104;2022-09-13T03:47:02;8.90;91.20
67161;DHT22;54088;52.238;21.104;2022-09-13T03:49:29;8.90;91.10
67161;DHT22;54088;52.238;21.104;2022-09-13T03:51:56;8.90;91.10
67161;DHT22;54088;52.238;21.104;2022-09-13T03:54:28;8.90;91.20
67161;DHT22;54088;52.238;21.104;2022-09-13T03:59:33;9.00;91.60
67161;DHT22;54088;52.238;21.104;2022-09-13T04:02:01;9.00;91.70
67161;DHT22;54088;52.238;21.104;2022-09-13T04:04:27;9.00;92.00
67161;DHT22;54088;52.238;21.104;2022-09-13T04:06:52;9.10;92.00
67161;DHT22;54088;52.238;21.104;2022-09-13T04:09:21;9.10;92.10
67161;DHT22;54088;52.238;21.104;2022-09-13T04:11:47;9.20;92.20
67161;DHT22;54088;52.238;21.104;2022-09-13T04:14:13;9.20;92.20
67161;DHT22;54088;52.238;21.104;2022-09-13T04:16:40;9.10;92.30
67161;DHT22;54088;52.238;21.104;2022-09-13T04:19:06;9.20;92.30
67161;DHT22;54088;52.238;21.104;2022-09-13T04:21:32;9.20;92.30
67161;DHT22;54088;52.238;21.104;2022-09-13T04:23:57;9.20;92.50
67161;DHT22;54088;52.238;21.104;2022-09-13T04:26:23;9.20;92.50
67161;DHT22;54088;52.238;21.104;2022-09-13T04:28:48;9.20;92.30
67161;DHT22;54088;52.238;21.104;2022-09-13T04:31:16;9.20;92.30
67161;DHT22;54088;52.238;21.104;2022-09-13T04:33:42;9.20;92.30
67161;DHT22;54088;52.238;21.104;2022-09-13T04:36:07;9.20;92.20
67161;DHT22;54088;52.238;21.104;2022-09-13T04:38:33;9.20;92.10
67161;DHT22;54088;52.238;21.104;2022-09-13T04:41:02;9.30;92.10
67161;DHT22;54088;52.238;21.104;2022-09-13T04:43:28;9.30;92.00
67161;DHT22;54088;52.238;21.104;2022-09-13T04:45:53;9.40;91.90
67161;DHT22;54088;52.238;21.104;2022-09-13T04:48:19;9.40;91.60
67161;DHT22;54088;52.238;21.104;2022-09-13T04:50:45;9.30;91.40
67161;DHT22;54088;52.238;21.104;2022-09-13T04:53:11;9.30;91.30
67161;DHT22;54088;52.238;21.104;2022-09-13T04:55:37;9.30;91.30
67161;DHT22;54088;52.238;21.104;2022-09-13T04:58:03;9.30;91.20
67161;DHT22;54088;52.238;21.104;2022-09-13T05:00:29;9.40;91.00
67161;DHT22;54088;52.238;21.104;2022-09-13T05:02:56;9.50;90.90
67161;DHT22;54088;52.238;21.104;2022-09-13T05:05:22;9.60;90.60
67161;DHT22;54088;52.238;21.104;2022-09-13T05:07:51;9.60;90.50
67161;DHT22;54088;52.238;21.104;2022-09-13T05:10:17;9.80;90.30
67161;DHT22;54088;52.238;21.104;2022-09-13T05:12:43;9.80;90.10
67161;DHT22;54088;52.238;21.104;2022-09-13T05:15:09;9.90;89.90
67161;DHT22;54088;52.238;21.104;2022-09-13T05:17:39;9.80;89.60
67161;DHT22;54088;52.238;21.104;2022-09-13T05:20:05;9.90;89.50
67161;DHT22;54088;52.238;21.104;2022-09-13T05:22:31;9.90;89.40
67161;DHT22;54088;52.238;21.104;2022-09-13T05:24:56;10.00;89.20
67161;DHT22;54088;52.238;21.104;2022-09-13T05:27:22;10.10;88.60
67161;DHT22;54088;52.238;21.104;2022-09-13T05:29:48;10.10;88.30
67161;DHT22;54088;52.238;21.104;2022-09-13T05:32:13;10.30;88.30
67161;DHT22;54088;52.238;21.104;2022-09-13T05:34:40;10.40;88.00
67161;DHT22;54088;52.238;21.104;2022-09-13T05:37:05;10.50;87.40
67161;DHT22;54088;52.238;21.104;2022-09-13T05:39:31;10.60;87.20
67161;DHT22;54088;52.238;21.104;2022-09-13T05:41:57;10.80;87.00
67161;DHT22;54088;52.238;21.104;2022-09-13T05:44:23;10.90;86.60
67161;DHT22;54088;52.238;21.104;2022-09-13T05:46:48;11.00;85.60
67161;DHT22;54088;52.238;21.104;2022-09-13T05:49:15;11.10;85.30
67161;DHT22;54088;52.238;21.104;2022-09-13T05:51:41;11.20;85.50
67161;DHT22;54088;52.238;21.104;2022-09-13T05:54:09;11.40;85.00
67161;DHT22;54088;52.238;21.104;2022-09-13T05:56:35;11.50;84.20
67161;DHT22;54088;52.238;21.104;2022-09-13T05:59:01;11.90;83.70
67161;DHT22;54088;52.238;21.104;2022-09-13T06:01:27;12.10;83.00
67161;DHT22;54088;52.238;21.104;2022-09-13T06:03:57;12.30;82.10
67161;DHT22;54088;52.238;21.104;2022-09-13T06:06:23;12.30;81.00
67161;DHT22;54088;52.238;21.104;2022-09-13T06:08:53;12.40;81.20
67161;DHT22;54088;52.238;21.104;2022-09-13T06:11:19;12.40;81.00
67161;DHT22;54088;52.238;21.104;2022-09-13T06:13:45;12.60;81.10
67161;DHT22;54088;52.238;21.104;2022-09-13T06:16:12;13.00;79.50
67161;DHT22;54088;52.238;21.104;2022-09-13T06:18:38;13.00;78.80
67161;DHT22;54088;52.238;21.104;2022-09-13T06:21:10;13.10;78.90
67161;DHT22;54088;52.238;21.104;2022-09-13T06:23:36;13.20;78.90
67161;DHT22;54088;52.238;21.104;2022-09-13T06:26:08;13.40;78.40
67161;DHT22;54088;52.238;21.104;2022-09-13T06:28:34;13.40;77.80
67161;DHT22;54088;52.238;21.104;2022-09-13T06:31:05;13.50;78.30
67161;DHT22;54088;52.238;21.104;2022-09-13T06:33:32;13.70;78.40
67161;DHT22;54088;52.238;21.104;2022-09-13T06:36:13;14.10;77.50
67161;DHT22;54088;52.238;21.104;2022-09-13T06:38:45;14.00;76.40
67161;DHT22;54088;52.238;21.104;2022-09-13T06:41:13;13.90;76.60
67161;DHT22;54088;52.238;21.104;2022-09-13T06:43:40;13.90;77.00
67161;DHT22;54088;52.238;21.104;2022-09-13T06:46:11;14.10;77.20
67161;DHT22;54088;52.238;21.104;2022-09-13T06:48:39;14.20;76.70
67161;DHT22;54088;52.238;21.104;2022-09-13T06:51:07;14.20;77.00
67161;DHT22;54088;52.238;21.104;2022-09-13T06:53:34;14.40;76.90
67161;DHT22;54088;52.238;21.104;2022-09-13T06:58:27;15.00;74.50
67161;DHT22;54088;52.238;21.104;2022-09-13T07:00:54;15.50;74.20
67161;DHT22;54088;52.238;21.104;2022-09-13T07:03:19;16.20;72.50
67161;DHT22;54088;52.238;21.104;2022-09-13T07:05:45;16.50;69.80
67161;DHT22;54088;52.238;21.104;2022-09-13T07:08:11;16.50;69.80
67161;DHT22;54088;52.238;21.104;2022-09-13T07:10:36;16.40;69.90
67161;DHT22;54088;52.238;21.104;2022-09-13T07:13:02;16.40;70.20
67161;DHT22;54088;52.238;21.104;2022-09-13T07:15:28;16.30;70.90
67161;DHT22;54088;52.238;21.104;2022-09-13T07:17:53;16.10;71.00
67161;DHT22;54088;52.238;21.104;2022-09-13T07:20:19;16.00;71.80
67161;DHT22;54088;52.238;21.104;2022-09-13T07:22:47;16.10;72.30
67161;DHT22;54088;52.238;21.104;2022-09-13T07:25:13;16.30;71.90
67161;DHT22;54088;52.238;21.104;2022-09-13T07:27:39;16.20;72.40
67161;DHT22;54088;52.238;21.104;2022-09-13T07:30:05;16.20;72.50
67161;DHT22;54088;52.238;21.104;2022-09-13T07:32:31;16.20;73.00
67161;DHT22;54088;52.238;21.104;2022-09-13T07:34:57;16.10;73.30
67161;DHT22;54088;52.238;21.104;2022-09-13T07:37:23;16.00;74.10
67161;DHT22;54088;52.238;21.104;2022-09-13T07:39:48;16.30;74.10
67161;DHT22;54088;52.238;21.104;2022-09-13T07:42:14;16.60;73.30
67161;DHT22;54088;52.238;21.104;2022-09-13T07:44:39;16.90;73.00
67161;DHT22;54088;52.238;21.104;2022-09-13T07:47:05;17.00;72.10
67161;DHT22;54088;52.238;21.104;2022-09-13T07:49:31;17.60;71.30
67161;DHT22;54088;52.238;21.104;2022-09-13T07:51:56;18.00;69.60
67161;DHT22;54088;52.238;21.104;2022-09-13T07:54:22;18.10;69.10
67161;DHT22;54088;52.238;21.104;2022-09-13T07:56:48;18.20;69.00
67161;DHT22;54088;52.238;21.104;2022-09-13T07:59:16;18.20;68.40
67161;DHT22;54088;52.238;21.104;2022-09-13T08:01:44;18.10;68.90
67161;DHT22;54088;52.238;21.104;2022-09-13T08:04:13;18.20;69.50
67161;DHT22;54088;52.238;21.104;2022-09-13T08:06:40;18.80;68.50
67161;DHT22;54088;52.238;21.104;2022-09-13T08:09:08;19.20;67.30
67161;DHT22;54088;52.238;21.104;2022-09-13T08:11:39;19.80;65.70
67161;DHT22;54088;52.238;21.104;2022-09-13T08:14:08;20.60;62.90
67161;DHT22;54088;52.238;21.104;2022-09-13T08:16:35;22.10;59.40
67161;DHT22;54088;52.238;21.104;2022-09-13T08:19:03;22.60;57.10
67161;DHT22;54088;52.238;21.104;2022-09-13T08:21:34;22.00;57.80
67161;DHT22;54088;52.238;21.104;2022-09-13T08:24:00;21.40;60.10
67161;DHT22;54088;52.238;21.104;2022-09-13T08:26:30;20.80;61.30
67161;DHT22;54088;52.238;21.104;2022-09-13T08:28:58;20.20;63.00
67161;DHT22;54088;52.238;21.104;2022-09-13T08:31:24;19.40;65.20
67161;DHT22;54088;52.238;21.104;2022-09-13T08:33:50;19.30;66.60
67161;DHT22;54088;52.238;21.104;2022-09-13T08:36:16;19.50;66.50
67161;DHT22;54088;52.238;21.104;2022-09-13T08:38:46;19.60;65.90
67161;DHT22;54088;52.238;21.104;2022-09-13T08:46:48;19.40;66.20
67161;DHT22;54088;52.238;21.104;2022-09-13T08:49:35;19.30;67.70
67161;DHT22;54088;52.238;21.104;2022-09-13T08:52:27;19.50;66.10
67161;DHT22;54088;52.238;21.104;2022-09-13T08:54:55;19.80;66.50
67161;DHT22;54088;52.238;21.104;2022-09-13T08:57:35;20.00;64.40
67161;DHT22;54088;52.238;21.104;2022-09-13T09:02:57;20.40;63.50
67161;DHT22;54088;52.238;21.104;2022-09-13T09:05:27;20.30;62.50
67161;DHT22;54088;52.238;21.104;2022-09-13T09:10:36;20.30;64.10
67161;DHT22;54088;52.238;21.104;2022-09-13T09:13:27;20.30;61.80
67161;DHT22;54088;52.238;21.104;2022-09-13T09:16:21;20.10;62.50
67161;DHT22;54088;52.238;21.104;2022-09-13T09:18:44;20.10;62.40
67161;DHT22;54088;52.238;21.104;2022-09-13T09:21:15;20.20;63.10
67161;DHT22;54088;52.238;21.104;2022-09-13T09:26:25;20.70;60.60
67161;DHT22;54088;52.238;21.104;2022-09-13T09:28:55;20.80;60.40
67161;DHT22;54088;52.238;21.104;2022-09-13T09:38:54;21.10;59.80
67161;DHT22;54088;52.238;21.104;2022-09-13T09:41:29;21.20;59.30
67161;DHT22;54088;52.238;21.104;2022-09-13T09:46:42;21.40;59.40
67161;DHT22;54088;52.238;21.104;2022-09-13T09:49:18;21.50;58.00
67161;DHT22;54088;52.238;21.104;2022-09-13T09:52:06;21.50;57.10
67161;DHT22;54088;52.238;21.104;2022-09-13T09:54:35;21.50;57.20
67161;DHT22;54088;52.238;21.104;2022-09-13T09:57:02;21.50;56.80
67161;DHT22;54088;52.238;21.104;2022-09-13T09:59:31;21.70;55.90
67161;DHT22;54088;52.238;21.104;2022-09-13T10:02:19;21.80;55.60
67161;DHT22;54088;52.238;21.104;2022-09-13T10:04:56;21.80;56.20
67161;DHT22;54088;52.238;21.104;2022-09-13T10:07:31;21.90;56.00
67161;DHT22;54088;52.238;21.104;2022-09-13T10:12:53;22.30;56.20
67161;DHT22;54088;52.238;21.104;2022-09-13T10:15:24;22.30;56.20
67161;DHT22;54088;52.238;21.104;2022-09-13T10:18:01;21.90;57.60
67161;DHT22;54088;52.238;21.104;2022-09-13T10:20:28;21.60;57.90
67161;DHT22;54088;52.238;21.104;2022-09-13T10:23:17;21.50;58.30
67161;DHT22;54088;52.238;21.104;2022-09-13T10:25:53;21.60;58.30
67161;DHT22;54088;52.238;21.104;2022-09-13T10:28:20;21.50;57.90
67161;DHT22;54088;52.238;21.104;2022-09-13T10:30:51;21.60;58.20
67161;DHT22;54088;52.238;21.104;2022-09-13T10:33:29;21.80;57.50
67161;DHT22;54088;52.238;21.104;2022-09-13T10:36:03;21.90;56.30
67161;DHT22;54088;52.238;21.104;2022-09-13T10:38:31;22.00;56.40
67161;DHT22;54088;52.238;21.104;2022-09-13T10:41:00;22.00;55.80
67161;DHT22;54088;52.238;21.104;2022-09-13T10:43:29;21.90;56.10
67161;DHT22;54088;52.238;21.104;2022-09-13T10:45:56;21.90;56.10
67161;DHT22;54088;52.238;21.104;2022-09-13T10:48:22;21.80;55.40
67161;DHT22;54088;52.238;21.104;2022-09-13T10:51:34;21.60;55.90
67161;DHT22;54088;52.238;21.104;2022-09-13T10:56:40;21.60;56.70
67161;DHT22;54088;52.238;21.104;2022-09-13T10:59:27;21.50;56.30
67161;DHT22;54088;52.238;21.104;2022-09-13T11:07:15;21.40;57.60
67161;DHT22;54088;52.238;21.104;2022-09-13T11:09:58;21.40;57.80
67161;DHT22;54088;52.238;21.104;2022-09-13T11:33:30;21.90;55.60
67161;DHT22;54088;52.238;21.104;2022-09-13T11:39:23;22.10;55.30
67161;DHT22;54088;52.238;21.104;2022-09-13T11:55:27;22.10;57.20
67161;DHT22;54088;52.238;21.104;2022-09-13T11:58:00;22.10;55.00
67161;DHT22;54088;52.238;21.104;2022-09-13T12:00:37;22.20;54.30
67161;DHT22;54088;52.238;21.104;2022-09-13T12:05:57;22.30;52.00
67161;DHT22;54088;52.238;21.104;2022-09-13T12:08:29;22.20;52.80
67161;DHT22;54088;52.238;21.104;2022-09-13T12:11:01;22.30;54.10
67161;DHT22;54088;52.238;21.104;2022-09-13T12:13:48;22.30;54.00
67161;DHT22;54088;52.238;21.104;2022-09-13T12:16:24;22.30;53.30
67161;DHT22;54088;52.238;21.104;2022-09-13T12:18:55;22.40;52.70
67161;DHT22;54088;52.238;21.104;2022-09-13T12:21:31;22.40;52.50
67161;DHT22;54088;52.238;21.104;2022-09-13T12:26:46;22.50;52.50
67161;DHT22;54088;52.238;21.104;2022-09-13T12:29:44;22.40;52.70
67161;DHT22;54088;52.238;21.104;2022-09-13T12:32:09;22.30;52.50
67161;DHT22;54088;52.238;21.104;2022-09-13T12:42:59;22.00;55.30
67161;DHT22;54088;52.238;21.104;2022-09-13T12:51:29;21.60;56.20
67161;DHT22;54088;52.238;21.104;2022-09-13T12:59:33;21.20;56.60
67161;DHT22;54088;52.238;21.104;2022-09-13T13:02:02;21.10;57.20
67161;DHT22;54088;52.238;21.104;2022-09-13T13:04:34;21.00;58.40
67161;DHT22;54088;52.238;21.104;2022-09-13T13:07:06;21.00;57.80
67161;DHT22;54088;52.238;21.104;2022-09-13T13:12:11;20.90;58.20
67161;DHT22;54088;52.238;21.104;2022-09-13T13:14:49;20.80;58.40
67161;DHT22;54088;52.238;21.104;2022-09-13T13:23:27;20.60;59.20
67161;DHT22;54088;52.238;21.104;2022-09-13T13:36:42;20.10;61.20
67161;DHT22;54088;52.238;21.104;2022-09-13T13:39:12;20.10;61.50
67161;DHT22;54088;52.238;21.104;2022-09-13T13:58:00;20.10;63.50
67161;DHT22;54088;52.238;21.104;2022-09-13T14:00:29;20.10;63.70
67161;DHT22;54088;52.238;21.104;2022-09-13T14:03:04;20.10;64.10
67161;DHT22;54088;52.238;21.104;2022-09-13T14:18:59;20.30;63.80
67161;DHT22;54088;52.238;21.104;2022-09-13T14:21:32;20.30;64.10
67161;DHT22;54088;52.238;21.104;2022-09-13T14:26:35;20.10;64.80
67161;DHT22;54088;52.238;21.104;2022-09-13T14:29:05;20.00;65.30
67161;DHT22;54088;52.238;21.104;2022-09-13T14:31:31;19.90;65.60
67161;DHT22;54088;52.238;21.104;2022-09-13T14:33:57;19.90;65.90
67161;DHT22;54088;52.238;21.104;2022-09-13T14:36:23;19.90;65.90
67161;DHT22;54088;52.238;21.104;2022-09-13T14:38:56;19.90;65.90
67161;DHT22;54088;52.238;21.104;2022-09-13T14:41:33;19.90;66.30
67161;DHT22;54088;52.238;21.104;2022-09-13T14:44:21;19.90;66.40
67161;DHT22;54088;52.238;21.104;2022-09-13T14:46:53;19.80;66.60
67161;DHT22;54088;52.238;21.104;2022-09-13T14:49:25;19.80;66.50
67161;DHT22;54088;52.238;21.104;2022-09-13T14:51:56;19.90;66.90
67161;DHT22;54088;52.238;21.104;2022-09-13T14:54:28;20.00;66.90
67161;DHT22;54088;52.238;21.104;2022-09-13T14:56:58;19.90;66.90
67161;DHT22;54088;52.238;21.104;2022-09-13T14:59:30;19.90;67.10
67161;DHT22;54088;52.238;21.104;2022-09-13T15:02:04;19.90;67.20
67161;DHT22;54088;52.238;21.104;2022-09-13T15:04:30;19.90;67.80
67161;DHT22;54088;52.238;21.104;2022-09-13T15:07:17;19.80;68.10
67161;DHT22;54088;52.238;21.104;2022-09-13T15:09:44;19.80;68.00
67161;DHT22;54088;52.238;21.104;2022-09-13T15:12:22;19.70;68.10
67161;DHT22;54088;52.238;21.104;2022-09-13T15:20:22;19.60;68.70
67161;DHT22;54088;52.238;21.104;2022-09-13T15:22:49;19.60;68.90
67161;DHT22;54088;52.238;21.104;2022-09-13T15:25:28;19.60;69.10
67161;DHT22;54088;52.238;21.104;2022-09-13T15:27:55;19.60;69.30
67161;DHT22;54088;52.238;21.104;2022-09-13T15:33:13;19.50;69.70
67161;DHT22;54088;52.238;21.104;2022-09-13T15:35:43;19.40;69.80
67161;DHT22;54088;52.238;21.104;2022-09-13T15:40:43;19.40;70.30
67161;DHT22;54088;52.238;21.104;2022-09-13T15:43:09;19.40;70.40
67161;DHT22;54088;52.238;21.104;2022-09-13T15:45:35;19.30;70.50
67161;DHT22;54088;52.238;21.104;2022-09-13T15:48:01;19.30;70.90
67161;DHT22;54088;52.238;21.104;2022-09-13T15:50:28;19.20;71.10
67161;DHT22;54088;52.238;21.104;2022-09-13T15:52:58;19.20;71.30
67161;DHT22;54088;52.238;21.104;2022-09-13T15:55:26;19.20;71.60
67161;DHT22;54088;52.238;21.104;2022-09-13T15:57:52;19.20;71.70
67161;DHT22;54088;52.238;21.104;2022-09-13T16:00:24;19.10;71.80
67161;DHT22;54088;52.238;21.104;2022-09-13T16:02:50;19.10;71.80
67161;DHT22;54088;52.238;21.104;2022-09-13T16:05:16;19.10;72.00
67161;DHT22;54088;52.238;21.104;2022-09-13T16:07:42;19.10;71.90
67161;DHT22;54088;52.238;21.104;2022-09-13T16:10:21;19.10;71.90
67161;DHT22;54088;52.238;21.104;2022-09-13T16:12:47;19.00;71.80
67161;DHT22;54088;52.238;21.104;2022-09-13T16:15:13;19.00;71.90
67161;DHT22;54088;52.238;21.104;2022-09-13T16:17:40;19.00;72.00
67161;DHT22;54088;52.238;21.104;2022-09-13T16:20:06;18.90;72.20
67161;DHT22;54088;52.238;21.104;2022-09-13T16:22:33;18.90;72.40
67161;DHT22;54088;52.238;21.104;2022-09-13T16:24:59;18.80;72.60
67161;DHT22;54088;52.238;21.104;2022-09-13T16:27:25;18.80;73.00
67161;DHT22;54088;52.238;21.104;2022-09-13T16:29:52;18.70;73.30
67161;DHT22;54088;52.238;21.104;2022-09-13T16:32:18;18.70;73.50
67161;DHT22;54088;52.238;21.104;2022-09-13T16:34:44;18.70;73.70
67161;DHT22;54088;52.238;21.104;2022-09-13T16:37:13;18.60;73.80
67161;DHT22;54088;52.238;21.104;2022-09-13T16:39:39;18.60;74.10
67161;DHT22;54088;52.238;21.104;2022-09-13T16:42:05;18.60;74.30
67161;DHT22;54088;52.238;21.104;2022-09-13T16:44:31;18.60;74.50
67161;DHT22;54088;52.238;21.104;2022-09-13T16:46:56;18.50;74.60
67161;DHT22;54088;52.238;21.104;2022-09-13T16:49:23;18.50;74.80
67161;DHT22;54088;52.238;21.104;2022-09-13T16:51:49;18.50;75.00
67161;DHT22;54088;52.238;21.104;2022-09-13T16:54:15;18.50;75.20
67161;DHT22;54088;52.238;21.104;2022-09-13T16:56:40;18.50;75.30
67161;DHT22;54088;52.238;21.104;2022-09-13T16:59:06;18.50;75.60
67161;DHT22;54088;52.238;21.104;2022-09-13T17:01:32;18.40;75.80
67161;DHT22;54088;52.238;21.104;2022-09-13T17:03:57;18.40;75.90
67161;DHT22;54088;52.238;21.104;2022-09-13T17:06:24;18.40;76.10
67161;DHT22;54088;52.238;21.104;2022-09-13T17:08:56;18.30;76.60
67161;DHT22;54088;52.238;21.104;2022-09-13T17:11:25;18.20;77.00
67161;DHT22;54088;52.238;21.104;2022-09-13T17:13:51;18.20;77.40
67161;DHT22;54088;52.238;21.104;2022-09-13T17:18:51;18.20;77.60
67161;DHT22;54088;52.238;21.104;2022-09-13T17:21:17;18.20;77.90
67161;DHT22;54088;52.238;21.104;2022-09-13T17:23:43;18.10;78.00
67161;DHT22;54088;52.238;21.104;2022-09-13T17:26:09;18.10;78.00
67161;DHT22;54088;52.238;21.104;2022-09-13T17:28:35;18.10;78.20
67161;DHT22;54088;52.238;21.104;2022-09-13T17:31:01;18.10;78.40
67161;DHT22;54088;52.238;21.104;2022-09-13T17:33:27;18.00;78.60
67161;DHT22;54088;52.238;21.104;2022-09-13T17:36:00;18.00;78.60
67161;DHT22;54088;52.238;21.104;2022-09-13T17:38:26;18.00;78.90
67161;DHT22;54088;52.238;21.104;2022-09-13T17:41:03;17.90;79.10
67161;DHT22;54088;52.238;21.104;2022-09-13T17:43:29;18.00;79.20
67161;DHT22;54088;52.238;21.104;2022-09-13T17:45:55;18.00;79.20
67161;DHT22;54088;52.238;21.104;2022-09-13T17:48:21;17.90;79.30
67161;DHT22;54088;52.238;21.104;2022-09-13T17:50:46;17.90;79.40
67161;DHT22;54088;52.238;21.104;2022-09-13T17:53:12;17.90;79.50
67161;DHT22;54088;52.238;21.104;2022-09-13T17:55:48;17.80;79.50
67161;DHT22;54088;52.238;21.104;2022-09-13T17:58:14;17.80;79.80
67161;DHT22;54088;52.238;21.104;2022-09-13T18:00:40;17.80;80.00
67161;DHT22;54088;52.238;21.104;2022-09-13T18:03:06;17.80;80.10
67161;DHT22;54088;52.238;21.104;2022-09-13T18:05:32;17.70;80.10
67161;DHT22;54088;52.238;21.104;2022-09-13T18:07:57;17.80;80.30
67161;DHT22;54088;52.238;21.104;2022-09-13T18:10:23;17.70;80.30
67161;DHT22;54088;52.238;21.104;2022-09-13T18:12:49;17.70;80.20
67161;DHT22;54088;52.238;21.104;2022-09-13T18:15:15;17.80;80.30
67161;DHT22;54088;52.238;21.104;2022-09-13T18:17:40;17.80;80.30
67161;DHT22;54088;52.238;21.104;2022-09-13T18:20:06;17.80;80.30
67161;DHT22;54088;52.238;21.104;2022-09-13T18:22:32;17.80;80.10
67161;DHT22;54088;52.238;21.104;2022-09-13T18:24:57;17.80;80.10
67161;DHT22;54088;52.238;21.104;2022-09-13T18:27:23;17.80;80.20
67161;DHT22;54088;52.238;21.104;2022-09-13T18:29:49;17.80;80.30
67161;DHT22;54088;52.238;21.104;2022-09-13T18:32:14;17.70;80.30
67161;DHT22;54088;52.238;21.104;2022-09-13T18:34:40;17.70;80.50
67161;DHT22;54088;52.238;21.104;2022-09-13T18:37:06;17.70;80.70
67161;DHT22;54088;52.238;21.104;2022-09-13T18:39:32;17.70;80.80
67161;DHT22;54088;52.238;21.104;2022-09-13T18:41:58;17.60;80.70
67161;DHT22;54088;52.238;21.104;2022-09-13T18:44:25;17.70;80.80
67161;DHT22;54088;52.238;21.104;2022-09-13T18:46:54;17.60;81.00
67161;DHT22;54088;52.238;21.104;2022-09-13T18:49:20;17.60;81.00
67161;DHT22;54088;52.238;21.104;2022-09-13T18:51:47;17.60;80.90
67161;DHT22;54088;52.238;21.104;2022-09-13T18:54:16;17.60;80.70
67161;DHT22;54088;52.238;21.104;2022-09-13T18:56:43;17.60;80.70
67161;DHT22;54088;52.238;21.104;2022-09-13T18:59:09;17.60;80.70
67161;DHT22;54088;52.238;21.104;2022-09-13T19:01:37;17.60;80.70
67161;DHT22;54088;52.238;21.104;2022-09-13T19:04:16;17.60;80.70
67161;DHT22;54088;52.238;21.104;2022-09-13T19:06:43;17.60;80.70
67161;DHT22;54088;52.238;21.104;2022-09-13T19:09:10;17.60;80.70
67161;DHT22;54088;52.238;21.104;2022-09-13T19:11:44;17.60;80.50
67161;DHT22;54088;52.238;21.104;2022-09-13T19:14:19;17.50;80.60
67161;DHT22;54088;52.238;21.104;2022-09-13T19:16:46;17.60;80.40
67161;DHT22;54088;52.238;21.104;2022-09-13T19:19:12;17.50;80.40